createdAt,value
2018-04-02T00:00:12.689Z,101069.39
2018-04-02T00:01:18.534Z,101064.77
2018-04-02T00:02:22.802Z,101066.05
2018-04-02T00:03:27.804Z,101070.27
2018-04-02T00:04:32.639Z,101064.74
2018-04-02T00:05:39.751Z,101061.77
2018-04-02T00:06:44.550Z,101070.22
2018-04-02T00:07:49.521Z,101071.08
2018-04-02T00:08:53.835Z,101065.98
2018-04-02T00:09:58.808Z,101066.82
2018-04-02T00:11:04.094Z,101069.33
2018-04-02T00:12:11.712Z,101068.88
2018-04-02T00:13:17.712Z,101066.34
2018-04-02T00:14:22.788Z,101068.05
2018-04-02T00:15:26.999Z,101063.41
2018-04-02T00:16:31.207Z,101068.05
2018-04-02T00:17:40.044Z,101065.13
2018-04-02T00:18:46.293Z,101064.69
2018-04-02T00:19:50.807Z,101065.51
2018-04-02T00:20:55.006Z,101063.81
2018-04-02T00:21:59.212Z,101059.19
2018-04-02T00:23:04.859Z,101057.09
2018-04-02T00:24:09.436Z,101061.34
2018-04-02T00:25:14.467Z,101060.06
2018-04-02T00:26:19.003Z,101055.84
2018-04-02T00:27:23.219Z,101054.18
2018-04-02T00:28:27.468Z,101050.77
2018-04-02T00:29:31.667Z,101044.03
2018-04-02T00:30:38.081Z,101045.70
2018-04-02T00:31:45.659Z,101043.19
2018-04-02T00:32:50.642Z,101040.64
2018-04-02T00:33:54.908Z,101044.03
2018-04-02T00:34:59.120Z,101043.22
2018-04-02T00:36:04.693Z,101044.03
2018-04-02T00:37:12.322Z,101041.92
2018-04-02T00:38:17.809Z,101042.31
2018-04-02T00:39:22.785Z,101042.34
2018-04-02T00:40:27.044Z,101045.72
2018-04-02T00:41:32.131Z,101042.78
2018-04-02T00:42:42.575Z,101040.22
2018-04-02T00:43:49.121Z,101036.39
2018-04-02T00:44:53.352Z,101044.84
2018-04-02T00:45:57.604Z,101042.34
2018-04-02T00:47:01.856Z,101041.48
2018-04-02T00:48:08.829Z,101041.06
2018-04-02T00:49:14.259Z,101042.36
2018-04-02T00:50:19.396Z,101045.32
2018-04-02T00:51:23.615Z,101041.47
2018-04-02T00:52:27.816Z,101049.91
2018-04-02T00:53:32.102Z,101044.38
2018-04-02T00:54:40.676Z,101044.35
2018-04-02T00:55:47.475Z,101049.02
2018-04-02T00:56:51.731Z,101045.64
2018-04-02T00:57:55.937Z,101041.81
2018-04-02T00:59:00.152Z,101049.00
2018-04-02T01:00:07.774Z,101039.29
2018-04-02T01:01:12.997Z,101040.55
2018-04-02T01:02:17.930Z,101046.45
2018-04-02T01:03:22.123Z,101036.73
2018-04-02T01:04:26.323Z,101034.63
2018-04-02T01:05:30.967Z,101034.61
2018-04-02T01:06:36.695Z,101039.70
2018-04-02T01:07:41.230Z,101040.94
2018-04-02T01:08:46.409Z,101037.91
2018-04-02T01:09:51.397Z,101034.09
2018-04-02T01:10:55.653Z,101030.72
2018-04-02T01:11:59.855Z,101034.94
2018-04-02T01:13:04.642Z,101033.22
2018-04-02T01:14:09.398Z,101033.64
2018-04-02T01:15:13.767Z,101031.11
2018-04-02T01:16:18.027Z,101032.41
2018-04-02T01:17:22.234Z,101028.56
2018-04-02T01:18:26.444Z,101024.34
2018-04-02T01:19:30.647Z,101024.31
2018-04-02T01:20:37.907Z,101029.41
2018-04-02T01:21:43.336Z,101025.59
2018-04-02T01:22:48.448Z,101024.34
2018-04-02T01:23:52.681Z,101022.22
2018-04-02T01:24:56.875Z,101025.58
2018-04-02T01:26:01.078Z,101028.94
2018-04-02T01:27:06.223Z,101023.84
2018-04-02T01:28:12.700Z,101024.25
2018-04-02T01:29:18.189Z,101019.14
2018-04-02T01:30:23.155Z,101020.84
2018-04-02T01:31:27.368Z,101022.53
2018-04-02T01:32:31.571Z,101023.37
2018-04-02T01:33:37.478Z,101022.12
2018-04-02T01:34:42.925Z,101023.38
2018-04-02T01:35:48.110Z,101022.12
2018-04-02T01:36:52.322Z,101022.98
2018-04-02T01:37:56.519Z,101026.32
2018-04-02T01:39:00.776Z,101020.78
2018-04-02T01:40:07.730Z,101022.06
2018-04-02T01:41:14.910Z,101022.03
2018-04-02T01:42:20.977Z,101022.86
2018-04-02T01:43:25.188Z,101021.56
2018-04-02T01:44:29.447Z,101022.80
2018-04-02T01:45:35.906Z,101026.19
2018-04-02T01:46:41.870Z,101018.12
2018-04-02T01:47:48.193Z,101022.30
2018-04-02T01:48:52.404Z,101020.98
2018-04-02T01:49:56.614Z,101024.34
2018-04-02T01:51:00.828Z,101018.84
2018-04-02T01:52:10.155Z,101020.50
2018-04-02T01:53:15.886Z,101016.25
2018-04-02T01:54:20.762Z,101017.52
2018-04-02T01:55:24.988Z,101016.19
2018-04-02T01:56:29.192Z,101011.96
2018-04-02T01:57:36.297Z,101016.55
2018-04-02T01:58:42.343Z,101014.85
2018-04-02T01:59:48.293Z,101008.93
2018-04-02T02:00:52.534Z,101004.67
2018-04-02T02:01:56.727Z,101010.97
2018-04-02T02:03:01.016Z,101010.11
2018-04-02T02:04:06.462Z,101002.95
2018-04-02T02:05:11.891Z,101010.11
2018-04-02T02:06:16.810Z,101007.14
2018-04-02T02:07:21.147Z,100998.73
2018-04-02T02:08:25.384Z,101001.72
2018-04-02T02:09:29.597Z,100998.34
2018-04-02T02:10:34.508Z,100995.82
2018-04-02T02:11:40.275Z,100995.03
2018-04-02T02:12:45.938Z,100990.38
2018-04-02T02:13:51.202Z,100993.31
2018-04-02T02:14:55.412Z,100990.36
2018-04-02T02:15:59.628Z,100993.78
2018-04-02T02:17:04.390Z,100987.89
2018-04-02T02:18:11.048Z,100985.80
2018-04-02T02:19:16.758Z,100993.37
2018-04-02T02:20:21.173Z,100994.66
2018-04-02T02:21:26.134Z,100989.59
2018-04-02T02:22:30.333Z,100989.64
2018-04-02T02:23:37.683Z,100994.25
2018-04-02T02:24:44.185Z,100991.70
2018-04-02T02:25:49.152Z,100985.38
2018-04-02T02:26:54.933Z,100984.98
2018-04-02T02:27:59.899Z,100985.83
2018-04-02T02:29:05.869Z,100977.78
2018-04-02T02:30:12.954Z,100979.48
2018-04-02T02:31:18.723Z,100973.98
2018-04-02T02:32:24.108Z,100974.80
2018-04-02T02:33:28.332Z,100974.39
2018-04-02T02:34:33.274Z,100973.14
2018-04-02T02:35:42.919Z,100973.98
2018-04-02T02:36:48.529Z,100977.42
2018-04-02T02:37:52.937Z,100979.58
2018-04-02T02:38:57.130Z,100978.33
2018-04-02T02:40:01.336Z,100980.44
2018-04-02T02:41:10.597Z,100982.52
2018-04-02T02:42:15.828Z,100982.07
2018-04-02T02:43:21.027Z,100984.16
2018-04-02T02:44:25.301Z,100976.11
2018-04-02T02:45:29.516Z,100987.03
2018-04-02T02:46:36.698Z,100981.50
2018-04-02T02:47:44.311Z,100976.03
2018-04-02T02:48:50.523Z,100978.98
2018-04-02T02:49:54.714Z,100975.55
2018-04-02T02:50:58.920Z,100976.83
2018-04-02T02:52:04.106Z,100980.23
2018-04-02T02:53:11.282Z,100976.41
2018-04-02T02:54:18.810Z,100979.78
2018-04-02T02:55:23.789Z,100970.08
2018-04-02T02:56:28.011Z,100972.58
2018-04-02T02:57:32.392Z,100972.57
2018-04-02T02:58:40.154Z,100972.56
2018-04-02T02:59:46.967Z,100968.80
2018-04-02T03:00:52.100Z,100968.39
2018-04-02T03:01:56.319Z,100968.80
2018-04-02T03:03:00.566Z,100962.04
2018-04-02T03:04:08.472Z,100968.38
2018-04-02T03:05:14.066Z,100966.62
2018-04-02T03:06:21.195Z,100964.97
2018-04-02T03:07:25.432Z,100966.22
2018-04-02T03:08:29.636Z,100961.14
2018-04-02T03:09:34.718Z,100962.82
2018-04-02T03:10:40.666Z,100956.84
2018-04-02T03:11:50.420Z,100959.33
2018-04-02T03:12:54.633Z,100957.20
2018-04-02T03:13:58.847Z,100958.47
2018-04-02T03:15:05.364Z,100955.95
2018-04-02T03:16:11.644Z,100957.62
2018-04-02T03:17:18.292Z,100960.56
2018-04-02T03:18:22.546Z,100950.86
2018-04-02T03:19:26.760Z,100946.20
2018-04-02T03:20:31.020Z,100949.97
2018-04-02T03:21:40.422Z,100948.72
2018-04-02T03:22:46.164Z,100950.39
2018-04-02T03:23:51.048Z,100947.03
2018-04-02T03:24:55.255Z,100948.27
2018-04-02T03:25:59.522Z,100945.69
2018-04-02T03:27:08.024Z,100956.19
2018-04-02T03:28:14.388Z,100950.28
2018-04-02T03:29:20.947Z,100949.91
2018-04-02T03:30:25.394Z,100948.28
2018-04-02T03:31:29.628Z,100950.80
2018-04-02T03:32:38.980Z,100951.66
2018-04-02T03:33:45.744Z,100947.05
2018-04-02T03:34:51.617Z,100952.15
2018-04-02T03:35:57.028Z,100953.72
2018-04-02T03:37:01.232Z,100952.02
2018-04-02T03:38:08.809Z,100950.34
2018-04-02T03:39:14.962Z,100950.31
2018-04-02T03:40:19.988Z,100948.60
2018-04-02T03:41:24.266Z,100944.37
2018-04-02T03:42:28.475Z,100937.63
2018-04-02T03:43:33.058Z,100946.45
2018-04-02T03:44:40.593Z,100943.03
2018-04-02T03:45:46.699Z,100946.00
2018-04-02T03:46:52.423Z,100941.34
2018-04-02T03:47:56.709Z,100940.49
2018-04-02T03:49:01.687Z,100939.58
2018-04-02T03:50:09.032Z,100942.05
2018-04-02T03:51:15.290Z,100937.78
2018-04-02T03:52:20.645Z,100936.98
2018-04-02T03:53:24.851Z,100939.47
2018-04-02T03:54:29.064Z,100933.53
2018-04-02T03:55:34.229Z,100942.37
2018-04-02T03:56:40.909Z,100941.55
2018-04-02T03:57:47.145Z,100943.70
2018-04-02T03:58:51.437Z,100936.98
2018-04-02T03:59:55.646Z,100942.52
2018-04-02T04:00:59.848Z,100939.61
2018-04-02T04:02:05.961Z,100942.16
2018-04-02T04:03:11.330Z,100940.49
2018-04-02T04:04:16.800Z,100935.03
2018-04-02T04:05:21.169Z,100932.58
2018-04-02T04:06:26.149Z,100935.13
2018-04-02T04:07:30.351Z,100934.26
2018-04-02T04:08:35.877Z,100933.86
2018-04-02T04:09:41.513Z,100935.13
2018-04-02T04:10:46.487Z,100933.06
2018-04-02T04:11:50.939Z,100935.62
2018-04-02T04:12:55.164Z,100936.89
2018-04-02T04:13:59.423Z,100934.34
2018-04-02T04:15:03.933Z,100937.30
2018-04-02T04:16:11.737Z,100930.56
2018-04-02T04:17:18.528Z,100936.45
2018-04-02T04:18:22.740Z,100929.67
2018-04-02T04:19:26.965Z,100929.68
2018-04-02T04:20:31.183Z,100929.67
2018-04-02T04:21:36.483Z,100928.80
2018-04-02T04:22:41.576Z,100924.09
2018-04-02T04:23:47.932Z,100933.73
2018-04-02T04:24:52.199Z,100926.97
2018-04-02T04:25:56.408Z,100923.95
2018-04-02T04:27:00.619Z,100927.75
2018-04-02T04:28:06.938Z,100927.28
2018-04-02T04:29:12.294Z,100925.56
2018-04-02T04:30:19.237Z,100922.98
2018-04-02T04:31:24.207Z,100921.71
2018-04-02T04:32:28.437Z,100918.31
2018-04-02T04:33:33.928Z,100923.76
2018-04-02T04:34:39.983Z,100921.23
2018-04-02T04:35:46.153Z,100917.81
2018-04-02T04:36:51.483Z,100919.09
2018-04-02T04:37:55.681Z,100922.05
2018-04-02T04:38:59.900Z,100925.41
2018-04-02T04:40:04.605Z,100919.95
2018-04-02T04:41:12.806Z,100915.30
2018-04-02T04:42:18.553Z,100919.08
2018-04-02T04:43:23.527Z,100913.59
2018-04-02T04:44:27.726Z,100910.25
2018-04-02T04:45:31.943Z,100913.66
2018-04-02T04:46:39.072Z,100917.45
2018-04-02T04:47:45.618Z,100904.34
2018-04-02T04:48:50.022Z,100904.77
2018-04-02T04:49:54.236Z,100905.20
2018-04-02T04:50:58.449Z,100906.94
2018-04-02T04:52:02.950Z,100909.05
2018-04-02T04:53:11.178Z,100912.47
2018-04-02T04:54:15.874Z,100916.70
2018-04-02T04:55:20.556Z,100915.09
2018-04-02T04:56:24.791Z,100915.11
2018-04-02T04:57:29.017Z,100913.91
2018-04-02T04:58:34.106Z,100907.22
2018-04-02T05:00:46.312Z,100909.36
2018-04-02T05:01:50.618Z,100908.14
2018-04-02T05:02:55.608Z,100914.48
2018-04-02T05:03:59.809Z,100909.38
2018-04-02T05:05:04.154Z,100910.22
2018-04-02T05:06:09.877Z,100911.94
2018-04-02T05:07:16.118Z,100904.78
2018-04-02T05:08:20.601Z,100914.88
2018-04-02T05:09:25.576Z,100904.78
2018-04-02T05:10:29.835Z,100908.18
2018-04-02T05:11:38.211Z,100907.74
2018-04-02T05:12:43.814Z,100907.79
2018-04-02T05:13:49.327Z,100907.33
2018-04-02T05:14:54.293Z,100907.73
2018-04-02T05:15:58.568Z,100905.22
2018-04-02T05:17:03.948Z,100902.23
2018-04-02T05:18:09.485Z,100904.37
2018-04-02T05:19:15.945Z,100902.65
2018-04-02T05:20:20.419Z,100899.72
2018-04-02T05:21:24.679Z,100900.55
2018-04-02T05:22:28.900Z,100897.98
2018-04-02T05:23:35.159Z,100902.63
2018-04-02T05:24:41.827Z,100897.50
2018-04-02T05:25:47.287Z,100897.50
2018-04-02T05:26:52.315Z,100899.23
2018-04-02T05:27:56.536Z,100896.25
2018-04-02T05:29:00.784Z,100895.42
2018-04-02T05:30:08.129Z,100895.42
2018-04-02T05:31:14.518Z,100895.02
2018-04-02T05:32:20.279Z,100895.03
2018-04-02T05:33:25.262Z,100896.30
2018-04-02T05:34:29.516Z,100898.00
2018-04-02T05:35:36.975Z,100894.27
2018-04-02T05:36:41.836Z,100893.05
2018-04-02T05:37:47.895Z,100894.74
2018-04-02T05:38:52.273Z,100896.86
2018-04-02T05:39:56.534Z,100893.87
2018-04-02T05:41:00.727Z,100892.21
2018-04-02T05:42:08.065Z,100892.20
2018-04-02T05:43:16.391Z,100890.93
2018-04-02T05:44:20.800Z,100890.52
2018-04-02T05:45:25.041Z,100887.55
2018-04-02T05:46:30.011Z,100887.56
2018-04-02T05:47:36.074Z,100886.73
2018-04-02T05:48:42.759Z,100884.66
2018-04-02T05:49:49.280Z,100880.86
2018-04-02T05:50:53.633Z,100884.68
2018-04-02T05:51:57.844Z,100881.67
2018-04-02T05:53:02.064Z,100882.13
2018-04-02T05:54:08.800Z,100879.62
2018-04-02T05:55:14.973Z,100880.88
2018-04-02T05:56:20.713Z,100879.66
2018-04-02T05:57:24.923Z,100871.23
2018-04-02T05:58:29.123Z,100874.16
2018-04-02T05:59:34.845Z,100873.34
2018-04-02T06:00:41.195Z,100875.48
2018-04-02T06:01:48.841Z,100876.36
2018-04-02T06:02:53.056Z,100873.38
2018-04-02T06:03:57.283Z,100872.98
2018-04-02T06:05:01.543Z,100875.97
2018-04-02T06:06:09.079Z,100871.73
2018-04-02T06:07:15.314Z,100870.95
2018-04-02T06:08:20.723Z,100874.77
2018-04-02T06:09:24.923Z,100879.40
2018-04-02T06:10:29.956Z,100884.91
2018-04-02T06:11:38.123Z,100880.67
2018-04-02T06:12:42.926Z,100882.39
2018-04-02T06:13:48.021Z,100878.59
2018-04-02T06:14:53.208Z,100878.19
2018-04-02T06:15:57.579Z,100879.91
2018-04-02T06:17:01.804Z,100873.14
2018-04-02T06:18:08.561Z,100878.25
2018-04-02T06:19:14.996Z,100863.91
2018-04-02T06:20:19.894Z,100872.77
2018-04-02T06:21:24.094Z,100869.03
2018-04-02T06:22:28.336Z,100863.55
2018-04-02T06:23:33.561Z,100863.98
2018-04-02T06:24:41.323Z,100862.30
2018-04-02T06:25:47.092Z,100859.38
2018-04-02T06:26:51.487Z,100856.00
2018-04-02T06:27:55.706Z,100858.14
2018-04-02T06:28:59.927Z,100856.88
2018-04-02T06:30:07.414Z,100854.80
2018-04-02T06:31:14.063Z,100859.04
2018-04-02T06:32:19.031Z,100854.39
2018-04-02T06:33:24.018Z,100851.45
2018-04-02T06:34:28.224Z,100859.49
2018-04-02T06:35:32.508Z,100853.16
2018-04-02T06:36:40.301Z,100847.27
2018-04-02T06:37:46.846Z,100853.59
2018-04-02T06:38:51.480Z,100843.45
2018-04-02T06:39:56.451Z,100841.34
2018-04-02T06:41:00.664Z,100841.77
2018-04-02T06:42:06.108Z,100840.92
2018-04-02T06:43:11.092Z,100836.70
2018-04-02T06:44:16.255Z,100843.02
2018-04-02T06:45:20.560Z,100837.52
2018-04-02T06:46:24.784Z,100844.71
2018-04-02T06:47:28.984Z,100841.77
2018-04-02T06:48:33.586Z,100845.14
2018-04-02T06:49:38.956Z,100841.77
2018-04-02T06:50:43.464Z,100840.09
2018-04-02T06:51:47.779Z,100842.62
2018-04-02T06:52:52.003Z,100843.87
2018-04-02T06:53:57.000Z,100838.39
2018-04-02T06:55:01.319Z,100837.12
2018-04-02T06:56:06.006Z,100840.48
2018-04-02T06:57:10.405Z,100839.19
2018-04-02T06:58:14.755Z,100845.55
2018-04-02T06:59:19.004Z,100842.58
2018-04-02T07:00:23.259Z,100837.91
2018-04-02T07:01:27.488Z,100837.91
2018-04-02T07:02:32.493Z,100837.91
2018-04-02T07:03:37.211Z,100838.34
2018-04-02T07:04:41.634Z,100835.34
2018-04-02T07:05:46.678Z,100839.59
2018-04-02T07:06:51.640Z,100840.00
2018-04-02T07:07:55.841Z,100845.05
2018-04-02T07:09:00.045Z,100841.67
2018-04-02T07:10:06.372Z,100840.41
2018-04-02T07:11:12.663Z,100842.48
2018-04-02T07:12:18.327Z,100833.55
2018-04-02T07:13:22.596Z,100837.31
2018-04-02T07:14:26.808Z,100831.78
2018-04-02T07:15:31.774Z,100834.33
2018-04-02T07:16:37.587Z,100829.69
2018-04-02T07:17:43.816Z,100830.12
2018-04-02T07:18:50.745Z,100822.05
2018-04-02T07:19:55.016Z,100822.49
2018-04-02T07:20:59.243Z,100823.32
2018-04-02T07:22:03.726Z,100818.24
2018-04-02T07:23:08.344Z,100821.23
2018-04-02T07:24:12.992Z,100815.70
2018-04-02T07:25:17.197Z,100811.00
2018-04-02T07:26:21.409Z,100812.22
2018-04-02T07:27:25.612Z,100809.23
2018-04-02T07:28:29.810Z,100812.66
2018-04-02T07:29:34.536Z,100814.31
2018-04-02T07:30:40.881Z,100815.97
2018-04-02T07:31:45.188Z,100812.54
2018-04-02T07:32:49.399Z,100812.48
2018-04-02T07:33:53.617Z,100815.00
2018-04-02T07:34:57.872Z,100812.41
2018-04-02T07:36:02.914Z,100811.14
2018-04-02T07:37:07.348Z,100808.14
2018-04-02T07:38:11.778Z,100809.41
2018-04-02T07:39:15.996Z,100812.77
2018-04-02T07:40:20.617Z,100815.31
2018-04-02T07:41:24.827Z,100817.78
2018-04-02T07:42:29.034Z,100813.45
2018-04-02T07:43:33.529Z,100818.94
2018-04-02T07:44:39.455Z,100821.46
2018-04-02T07:45:44.143Z,100821.45
2018-04-02T07:46:48.355Z,100819.34
2018-04-02T07:47:52.571Z,100812.03
2018-04-02T07:48:56.777Z,100811.62
2018-04-02T07:50:00.982Z,100803.56
2018-04-02T07:51:12.745Z,100803.19
2018-04-02T07:52:20.164Z,100809.48
2018-04-02T07:53:24.421Z,100808.17
2018-04-02T07:54:29.388Z,100808.53
2018-04-02T07:55:33.767Z,100805.15
2018-04-02T07:56:38.674Z,100808.16
2018-04-02T07:57:43.303Z,100809.84
2018-04-02T07:58:47.645Z,100800.83
2018-04-02T07:59:51.872Z,100810.17
2018-04-02T08:00:56.188Z,100804.59
2018-04-02T08:02:00.388Z,100804.97
2018-04-02T08:03:04.961Z,100808.35
2018-04-02T08:04:11.380Z,100801.55
2018-04-02T08:05:15.680Z,100795.24
2018-04-02T08:06:19.919Z,100797.33
2018-04-02T08:07:24.614Z,100798.98
2018-04-02T08:08:28.806Z,100795.58
2018-04-02T08:09:33.520Z,100793.09
2018-04-02T08:10:37.869Z,100795.23
2018-04-02T08:11:42.141Z,100793.88
2018-04-02T08:12:47.463Z,100796.75
2018-04-02T08:13:51.667Z,100797.51
2018-04-02T08:14:55.868Z,100798.78
2018-04-02T08:16:00.076Z,100797.95
2018-04-02T08:17:05.014Z,100792.92
2018-04-02T08:18:09.325Z,100798.72
2018-04-02T08:19:13.603Z,100792.63
2018-04-02T08:20:17.850Z,100790.44
2018-04-02T08:21:22.076Z,100784.02
2018-04-02T08:22:26.329Z,100782.63
2018-04-02T08:23:30.553Z,100781.70
2018-04-02T08:24:35.265Z,100780.30
2018-04-02T08:25:39.546Z,100783.53
2018-04-02T08:26:43.778Z,100780.47
2018-04-02T08:27:48.324Z,100776.95
2018-04-02T08:28:52.546Z,100783.84
2018-04-02T08:29:56.761Z,100777.82
2018-04-02T08:31:00.966Z,100778.92
2018-04-02T08:32:07.556Z,100771.92
2018-04-02T08:33:12.318Z,100776.50
2018-04-02T08:34:17.450Z,100772.94
2018-04-02T08:35:21.643Z,100775.15
2018-04-02T08:36:25.865Z,100770.68
2018-04-02T08:37:30.085Z,100765.20
2018-04-02T08:38:34.657Z,100762.69
2018-04-02T08:39:40.133Z,100760.48
2018-04-02T08:40:44.402Z,100764.23
2018-04-02T08:41:48.598Z,100763.67
2018-04-02T08:42:52.802Z,100757.27
2018-04-02T08:43:57.062Z,100760.97
2018-04-02T08:45:02.251Z,100748.63
2018-04-02T08:46:06.605Z,100746.91
2018-04-02T08:47:11.703Z,100749.88
2018-04-02T08:48:15.932Z,100744.44
2018-04-02T08:49:20.176Z,100747.97
2018-04-02T08:50:24.389Z,100746.20
2018-04-02T08:51:28.591Z,100740.97
2018-04-02T08:52:34.271Z,100742.03
2018-04-02T08:53:39.948Z,100742.32
2018-04-02T08:54:45.419Z,100739.54
2018-04-02T08:55:49.662Z,100742.09
2018-04-02T08:56:53.885Z,100743.13
2018-04-02T08:57:58.095Z,100739.38
2018-04-02T08:59:02.351Z,100742.88
2018-04-02T09:00:07.820Z,100737.00
2018-04-02T09:01:13.056Z,100737.12
2018-04-02T09:02:17.515Z,100737.56
2018-04-02T09:03:21.723Z,100733.25
2018-04-02T09:04:25.960Z,100731.86
2018-04-02T09:05:30.174Z,100731.84
2018-04-02T09:06:35.309Z,100728.34
2018-04-02T09:07:40.325Z,100724.35
2018-04-02T09:08:44.526Z,100722.74
2018-04-02T09:09:48.780Z,100721.97
2018-04-02T09:10:52.984Z,100717.27
2018-04-02T09:11:57.191Z,100720.23
2018-04-02T09:13:02.173Z,100712.08
2018-04-02T09:14:07.086Z,100715.73
2018-04-02T09:15:11.350Z,100716.49
2018-04-02T09:16:16.327Z,100705.00
2018-04-02T09:17:20.540Z,100711.51
2018-04-02T09:18:24.764Z,100708.16
2018-04-02T09:19:29.388Z,100707.67
2018-04-02T09:20:33.654Z,100705.45
2018-04-02T09:21:38.480Z,100700.63
2018-04-02T09:22:43.156Z,100691.48
2018-04-02T09:23:48.867Z,100696.89
2018-04-02T09:24:53.192Z,100690.50
2018-04-02T09:25:57.362Z,100687.47
2018-04-02T09:27:02.349Z,100688.09
2018-04-02T09:28:08.554Z,100688.03
2018-04-02T09:29:13.445Z,100682.64
2018-04-02T09:30:18.244Z,100684.93
2018-04-02T09:31:22.445Z,100690.25
2018-04-02T09:32:26.656Z,100687.41
2018-04-02T09:33:30.881Z,100682.12
2018-04-02T09:34:37.131Z,100688.72
2018-04-02T09:35:42.059Z,100684.75
2018-04-02T09:36:47.027Z,100681.05
2018-04-02T09:37:52.011Z,100678.09
2018-04-02T09:38:56.230Z,100671.48
2018-04-02T09:40:00.436Z,100670.17
2018-04-02T09:41:05.265Z,100672.77
2018-04-02T09:42:10.488Z,100674.53
2018-04-02T09:43:14.902Z,100671.34
2018-04-02T09:44:19.144Z,100668.55
2018-04-02T09:45:23.342Z,100668.83
2018-04-02T09:46:27.563Z,100669.03
2018-04-02T09:47:31.847Z,100666.77
2018-04-02T09:48:37.827Z,100663.41
2018-04-02T09:49:42.680Z,100657.36
2018-04-02T09:50:48.403Z,100665.95
2018-04-02T09:51:54.116Z,100655.62
2018-04-02T09:52:58.348Z,100655.03
2018-04-02T09:54:02.610Z,100662.55
2018-04-02T09:55:08.412Z,100653.81
2018-04-02T09:56:14.766Z,100652.80
2018-04-02T09:57:19.063Z,100653.20
2018-04-02T09:58:23.276Z,100646.67
2018-04-02T09:59:27.551Z,100640.25
2018-04-02T10:00:34.675Z,100635.40
2018-04-02T10:01:40.642Z,100633.45
2018-04-02T10:02:47.291Z,100632.69
2018-04-02T10:03:55.060Z,100634.00
2018-04-02T10:04:59.392Z,100639.48
2018-04-02T10:06:04.187Z,100634.99
2018-04-02T10:07:09.298Z,100633.81
2018-04-02T10:08:13.813Z,100639.86
2018-04-02T10:09:18.630Z,100639.09
2018-04-02T10:10:22.966Z,100638.15
2018-04-02T10:11:27.494Z,100642.77
2018-04-02T10:12:31.715Z,100644.55
2018-04-02T10:13:36.063Z,100642.73
2018-04-02T10:14:41.497Z,100640.98
2018-04-02T10:15:46.231Z,100637.04
2018-04-02T10:16:50.548Z,100632.55
2018-04-02T10:17:54.791Z,100626.80
2018-04-02T10:18:59.789Z,100621.81
2018-04-02T10:20:04.778Z,100615.67
2018-04-02T10:21:09.597Z,100621.02
2018-04-02T10:22:15.376Z,100616.17
2018-04-02T10:23:20.102Z,100613.59
2018-04-02T10:24:24.319Z,100606.50
2018-04-02T10:25:28.532Z,100607.38
2018-04-02T10:26:32.879Z,100614.75
2018-04-02T10:27:39.640Z,100604.92
2018-04-02T10:28:46.867Z,100601.34
2018-04-02T10:29:51.372Z,100598.03
2018-04-02T10:30:56.322Z,100601.86
2018-04-02T10:32:00.536Z,100599.31
2018-04-02T10:33:07.317Z,100597.11
2018-04-02T10:34:14.104Z,100594.80
2018-04-02T10:35:19.922Z,100595.70
2018-04-02T10:36:24.127Z,100590.91
2018-04-02T10:37:28.338Z,100589.87
2018-04-02T10:38:34.117Z,100586.41
2018-04-02T10:39:40.758Z,100585.83
2018-04-02T10:40:47.206Z,100575.84
2018-04-02T10:41:52.852Z,100571.47
2018-04-02T10:42:57.991Z,100568.52
2018-04-02T10:44:03.340Z,100573.53
2018-04-02T10:45:14.269Z,100572.49
2018-04-02T10:46:19.213Z,100573.09
2018-04-02T10:47:24.205Z,100568.71
2018-04-02T10:48:28.406Z,100559.37
2018-04-02T10:49:33.375Z,100558.07
2018-04-02T10:50:43.486Z,100559.70
2018-04-02T10:51:49.943Z,100556.45
2018-04-02T10:52:54.180Z,100555.34
2018-04-02T10:53:58.392Z,100553.58
2018-04-02T10:55:02.891Z,100554.12
2018-04-02T10:56:08.641Z,100553.02
2018-04-02T10:57:13.774Z,100556.34
2018-04-02T10:58:18.739Z,100546.94
2018-04-02T10:59:23.702Z,100551.20
2018-04-02T11:00:27.917Z,100542.52
2018-04-02T11:01:32.169Z,100541.34
2018-04-02T11:02:37.035Z,100536.05
2018-04-02T11:03:43.185Z,100539.81
2018-04-02T11:04:48.263Z,100540.88
2018-04-02T11:05:52.497Z,100530.72
2018-04-02T11:06:56.808Z,100529.76
2018-04-02T11:08:01.071Z,100528.79
2018-04-02T11:09:06.458Z,100525.98
2018-04-02T11:10:12.398Z,100522.95
2018-04-02T11:11:16.785Z,100522.44
2018-04-02T11:12:20.992Z,100514.30
2018-04-02T11:13:25.242Z,100516.81
2018-04-02T11:14:29.454Z,100517.00
2018-04-02T11:15:35.490Z,100514.16
2018-04-02T11:16:40.279Z,100514.35
2018-04-02T11:17:45.140Z,100507.59
2018-04-02T11:18:49.421Z,100512.94
2018-04-02T11:19:53.622Z,100513.50
2018-04-02T11:20:57.857Z,100518.23
2018-04-02T11:22:02.094Z,100507.34
2018-04-02T11:23:07.460Z,100515.79
2018-04-02T11:24:12.582Z,100508.46
2018-04-02T11:25:16.805Z,100504.00
2018-04-02T11:26:21.814Z,100503.39
2018-04-02T11:27:26.071Z,100495.00
2018-04-02T11:28:30.290Z,100497.11
2018-04-02T11:29:34.673Z,100490.44
2018-04-02T11:30:39.171Z,100496.46
2018-04-02T11:31:44.188Z,100491.00
2018-04-02T11:32:48.441Z,100481.82
2018-04-02T11:33:53.410Z,100483.44
2018-04-02T11:34:57.660Z,100485.96
2018-04-02T11:36:01.908Z,100488.25
2018-04-02T11:37:08.983Z,100484.83
2018-04-02T11:38:13.558Z,100480.60
2018-04-02T11:39:17.767Z,100478.13
2018-04-02T11:40:22.047Z,100479.57
2018-04-02T11:41:26.273Z,100476.82
2018-04-02T11:42:30.473Z,100470.45
2018-04-02T11:43:34.690Z,100480.27
2018-04-02T11:44:38.912Z,100474.63
2018-04-02T11:45:43.159Z,100465.41
2018-04-02T11:46:49.181Z,100472.82
2018-04-02T11:47:53.695Z,100472.09
2018-04-02T11:48:58.729Z,100476.47
2018-04-02T11:50:02.935Z,100470.09
2018-04-02T11:51:07.187Z,100469.14
2018-04-02T11:52:12.208Z,100463.34
2018-04-02T11:53:17.475Z,100460.95
2018-04-02T11:54:21.965Z,100458.48
2018-04-02T11:55:26.540Z,100458.29
2018-04-02T11:56:31.562Z,100464.38
2018-04-02T11:57:36.180Z,100461.31
2018-04-02T11:58:40.401Z,100452.21
2018-04-02T11:59:44.616Z,100451.55
2018-04-02T12:00:49.406Z,100450.19
2018-04-02T12:01:54.112Z,100450.56
2018-04-02T12:02:58.352Z,100445.19
2018-04-02T12:04:02.560Z,100442.91
2018-04-02T12:05:06.809Z,100446.53
2018-04-02T12:06:11.040Z,100444.66
2018-04-02T12:07:16.964Z,100438.88
2018-04-02T12:08:21.967Z,100439.22
2018-04-02T12:09:26.399Z,100436.69
2018-04-02T12:10:31.384Z,100439.39
2018-04-02T12:11:35.804Z,100436.27
2018-04-02T12:12:40.102Z,100436.56
2018-04-02T12:13:45.121Z,100435.22
2018-04-02T12:14:50.820Z,100432.02
2018-04-02T12:15:55.395Z,100425.17
2018-04-02T12:17:00.444Z,100425.06
2018-04-02T12:18:04.688Z,100427.69
2018-04-02T12:19:08.905Z,100426.03
2018-04-02T12:20:13.121Z,100425.58
2018-04-02T12:21:18.563Z,100420.80
2018-04-02T12:22:23.744Z,100423.17
2018-04-02T12:23:28.452Z,100425.91